sensor_id;sensor_type;location;lat;lon;timestamp;noise_LAeq;noise_LA_min;noise_LA_max;noise_LA01;noise_LA95
43787;Laerm;29409;49.306;8.500;2023-05-29T00:00:23;39.20;35.36;42.88;;
43787;Laerm;29409;49.306;8.500;2023-05-29T00:01:23;39.61;35.94;42.41;;
43787;Laerm;29409;49.306;8.500;2023-05-29T00:02:24;39.74;36.45;44.03;;
43787;Laerm;29409;49.306;8.500;2023-05-29T00:03:24;41.27;37.32;47.38;;
43787;Laerm;29409;49.306;8.500;2023-05-29T00:04:26;40.61;36.91;43.49;;
43787;Laerm;29409;49.306;8.500;2023-05-29T00:05:26;39.88;37.12;42.35;;
43787;Laerm;29409;49.306;8.500;2023-05-29T00:06:26;40.62;37.52;44.62;;
43787;Laerm;29409;49.306;8.500;2023-05-29T00:07:26;40.49;37.12;43.04;;
43787;Laerm;29409;49.306;8.500;2023-05-29T00:08:27;39.97;37.12;42.29;;
43787;Laerm;29409;49.306;8.500;2023-05-29T00:09:27;41.09;37.52;48.87;;
43787;Laerm;29409;49.306;8.500;2023-05-29T00:10:28;40.26;37.32;42.88;;
43787;Laerm;29409;49.306;8.500;2023-05-29T00:11:28;39.94;36.45;42.29;;
43787;Laerm;29409;49.306;8.500;2023-05-29T00:12:29;40.04;36.91;42.29;;
43787;Laerm;29409;49.306;8.500;2023-05-29T00:13:30;40.14;36.91;42.35;;
43787;Laerm;29409;49.306;8.500;2023-05-29T00:14:30;39.95;36.91;42.06;;
43787;Laerm;29409;49.306;8.500;2023-05-29T00:15:30;40.88;37.52;46.35;;
43787;Laerm;29409;49.306;8.500;2023-05-29T00:16:30;41.51;38.05;48.44;;
43787;Laerm;29409;49.306;8.500;2023-05-29T00:17:31;40.59;37.88;42.41;;
43787;Laerm;29409;49.306;8.500;2023-05-29T00:18:34;40.88;37.52;45.04;;
43787;Laerm;29409;49.306;8.500;2023-05-29T00:19:35;41.99;38.67;47.50;;
43787;Laerm;29409;49.306;8.500;2023-05-29T00:20:35;41.13;38.67;43.76;;
43787;Laerm;29409;49.306;8.500;2023-05-29T00:21:36;41.37;38.81;43.49;;
43787;Laerm;29409;49.306;8.500;2023-05-29T00:22:36;41.65;39.21;43.58;;
43787;Laerm;29409;49.306;8.500;2023-05-29T00:23:40;41.94;38.21;49.82;;
43787;Laerm;29409;49.306;8.500;2023-05-29T00:24:40;40.06;37.12;42.16;;
43787;Laerm;29409;49.306;8.500;2023-05-29T00:25:40;40.31;37.70;42.22;;
43787;Laerm;29409;49.306;8.500;2023-05-29T00:26:41;40.50;37.32;44.27;;
43787;Laerm;29409;49.306;8.500;2023-05-29T00:27:41;40.41;36.69;42.29;;
43787;Laerm;29409;49.306;8.500;2023-05-29T00:28:42;40.58;37.70;42.93;;
43787;Laerm;29409;49.306;8.500;2023-05-29T00:29:42;40.69;35.94;63.01;;
43787;Laerm;29409;49.306;8.500;2023-05-29T00:30:42;40.25;37.32;42.35;;
43787;Laerm;29409;49.306;8.500;2023-05-29T00:31:42;39.94;37.12;42.22;;
43787;Laerm;29409;49.306;8.500;2023-05-29T00:32:43;40.27;36.98;43.72;;
43787;Laerm;29409;49.306;8.500;2023-05-29T00:33:43;39.91;36.77;42.03;;
43787;Laerm;29409;49.306;8.500;2023-05-29T00:34:43;40.86;36.91;43.63;;
43787;Laerm;29409;49.306;8.500;2023-05-29T00:35:44;41.55;36.91;48.88;;
43787;Laerm;29409;49.306;8.500;2023-05-29T00:36:44;40.00;36.69;43.09;;
43787;Laerm;29409;49.306;8.500;2023-05-29T00:37:45;40.77;37.32;43.33;;
43787;Laerm;29409;49.306;8.500;2023-05-29T00:38:45;40.52;37.12;46.20;;
43787;Laerm;29409;49.306;8.500;2023-05-29T00:39:45;40.75;37.12;44.87;;
43787;Laerm;29409;49.306;8.500;2023-05-29T00:40:45;40.22;36.91;42.41;;
43787;Laerm;29409;49.306;8.500;2023-05-29T00:41:46;41.90;38.21;44.65;;
43787;Laerm;29409;49.306;8.500;2023-05-29T00:42:50;42.27;38.81;44.62;;
43787;Laerm;29409;49.306;8.500;2023-05-29T00:43:51;44.10;40.33;49.43;;
43787;Laerm;29409;49.306;8.500;2023-05-29T00:44:51;44.08;40.53;48.57;;
43787;Laerm;29409;49.306;8.500;2023-05-29T00:45:51;42.15;39.21;44.07;;
43787;Laerm;29409;49.306;8.500;2023-05-29T00:46:52;42.50;39.57;44.66;;
43787;Laerm;29409;49.306;8.500;2023-05-29T00:47:53;42.89;40.23;44.83;;
43787;Laerm;29409;49.306;8.500;2023-05-29T00:48:53;43.26;39.70;46.15;;
43787;Laerm;29409;49.306;8.500;2023-05-29T00:49:53;42.27;39.58;44.58;;
43787;Laerm;29409;49.306;8.500;2023-05-29T00:50:55;43.68;40.89;48.25;;
43787;Laerm;29409;49.306;8.500;2023-05-29T00:51:56;43.47;41.06;45.97;;
43787;Laerm;29409;49.306;8.500;2023-05-29T00:52:56;42.83;39.58;45.33;;
43787;Laerm;29409;49.306;8.500;2023-05-29T00:53:57;42.54;39.68;46.02;;
43787;Laerm;29409;49.306;8.500;2023-05-29T00:54:57;43.07;39.58;45.57;;
43787;Laerm;29409;49.306;8.500;2023-05-29T00:56:01;42.62;39.70;45.14;;
43787;Laerm;29409;49.306;8.500;2023-05-29T00:57:01;42.65;40.03;44.39;;
43787;Laerm;29409;49.306;8.500;2023-05-29T00:58:03;41.91;39.46;44.65;;
43787;Laerm;29409;49.306;8.500;2023-05-29T00:59:04;42.72;39.81;44.19;;
43787;Laerm;29409;49.306;8.500;2023-05-29T01:00:05;42.25;39.58;45.11;;
43787;Laerm;29409;49.306;8.500;2023-05-29T01:01:12;42.63;39.46;47.04;;
43787;Laerm;29409;49.306;8.500;2023-05-29T01:02:13;43.44;41.06;45.33;;
43787;Laerm;29409;49.306;8.500;2023-05-29T01:03:14;42.95;39.92;45.23;;
43787;Laerm;29409;49.306;8.500;2023-05-29T01:04:17;42.50;39.21;45.11;;
43787;Laerm;29409;49.306;8.500;2023-05-29T01:05:17;41.30;37.12;43.49;;
43787;Laerm;29409;49.306;8.500;2023-05-29T01:06:19;40.52;37.32;42.35;;
43787;Laerm;29409;49.306;8.500;2023-05-29T01:07:21;40.83;37.52;43.29;;
43787;Laerm;29409;49.306;8.500;2023-05-29T01:08:21;42.31;39.92;43.94;;
43787;Laerm;29409;49.306;8.500;2023-05-29T01:09:21;43.42;40.79;46.30;;
43787;Laerm;29409;49.306;8.500;2023-05-29T01:10:22;43.33;40.80;45.17;;
43787;Laerm;29409;49.306;8.500;2023-05-29T01:11:25;42.28;38.81;44.39;;
43787;Laerm;29409;49.306;8.500;2023-05-29T01:13:32;42.89;39.46;44.62;;
43787;Laerm;29409;49.306;8.500;2023-05-29T01:17:06;39.07;35.36;41.61;;
43787;Laerm;29409;49.306;8.500;2023-05-29T01:19:21;39.51;35.66;45.42;;
43787;Laerm;29409;49.306;8.500;2023-05-29T01:20:48;39.49;35.94;41.75;;
43787;Laerm;29409;49.306;8.500;2023-05-29T01:24:03;40.51;36.20;48.07;;
43787;Laerm;29409;49.306;8.500;2023-05-29T01:27:25;39.78;35.94;45.11;;
43787;Laerm;29409;49.306;8.500;2023-05-29T01:28:30;39.27;36.20;41.46;;
43787;Laerm;29409;49.306;8.500;2023-05-29T01:29:33;39.07;35.36;41.46;;
43787;Laerm;29409;49.306;8.500;2023-05-29T01:30:34;39.98;36.20;46.30;;
43787;Laerm;29409;49.306;8.500;2023-05-29T01:31:35;40.10;36.69;46.07;;
43787;Laerm;29409;49.306;8.500;2023-05-29T01:32:37;39.94;35.94;48.73;;
43787;Laerm;29409;49.306;8.500;2023-05-29T01:33:39;39.30;35.31;41.68;;
43787;Laerm;29409;49.306;8.500;2023-05-29T01:34:40;39.43;35.66;41.89;;
43787;Laerm;29409;49.306;8.500;2023-05-29T01:35:40;39.35;36.10;42.35;;
43787;Laerm;29409;49.306;8.500;2023-05-29T01:36:42;43.30;35.66;51.95;;
43787;Laerm;29409;49.306;8.500;2023-05-29T01:37:42;43.63;36.45;59.30;;
43787;Laerm;29409;49.306;8.500;2023-05-29T01:38:42;39.40;35.36;41.53;;
43787;Laerm;29409;49.306;8.500;2023-05-29T01:39:42;39.35;35.36;41.89;;
43787;Laerm;29409;49.306;8.500;2023-05-29T01:40:43;39.48;35.94;42.03;;
43787;Laerm;29409;49.306;8.500;2023-05-29T01:41:43;39.43;34.69;42.09;;
43787;Laerm;29409;49.306;8.500;2023-05-29T01:42:45;39.27;35.94;44.07;;
43787;Laerm;29409;49.306;8.500;2023-05-29T01:43:45;39.57;35.04;41.75;;
43787;Laerm;29409;49.306;8.500;2023-05-29T01:44:46;39.27;36.20;41.22;;
43787;Laerm;29409;49.306;8.500;2023-05-29T01:45:46;39.80;36.69;42.58;;
43787;Laerm;29409;49.306;8.500;2023-05-29T01:46:47;40.65;36.20;43.55;;
43787;Laerm;29409;49.306;8.500;2023-05-29T01:47:48;39.73;36.69;50.32;;
43787;Laerm;29409;49.306;8.500;2023-05-29T01:48:48;39.21;34.69;41.48;;
43787;Laerm;29409;49.306;8.500;2023-05-29T01:49:49;41.92;36.91;63.93;;
43787;Laerm;29409;49.306;8.500;2023-05-29T01:50:50;39.34;35.04;41.82;;
43787;Laerm;29409;49.306;8.500;2023-05-29T01:51:50;39.55;36.20;42.09;;
43787;Laerm;29409;49.306;8.500;2023-05-29T01:52:51;39.71;36.69;41.89;;
43787;Laerm;29409;49.306;8.500;2023-05-29T01:53:51;39.81;35.94;42.65;;
43787;Laerm;29409;49.306;8.500;2023-05-29T01:54:51;39.55;34.69;41.89;;
43787;Laerm;29409;49.306;8.500;2023-05-29T01:55:52;39.66;35.94;42.29;;
43787;Laerm;29409;49.306;8.500;2023-05-29T01:56:52;39.79;36.91;44.03;;
43787;Laerm;29409;49.306;8.500;2023-05-29T01:57:53;42.03;37.32;45.99;;
43787;Laerm;29409;49.306;8.500;2023-05-29T01:58:54;40.13;36.91;44.94;;
43787;Laerm;29409;49.306;8.500;2023-05-29T01:59:54;39.50;35.66;41.89;;
43787;Laerm;29409;49.306;8.500;2023-05-29T02:00:55;39.14;36.45;41.61;;
43787;Laerm;29409;49.306;8.500;2023-05-29T02:01:55;40.85;37.12;45.83;;
43787;Laerm;29409;49.306;8.500;2023-05-29T02:02:56;40.57;37.32;44.87;;
43787;Laerm;29409;49.306;8.500;2023-05-29T02:03:56;39.80;36.69;43.54;;
43787;Laerm;29409;49.306;8.500;2023-05-29T02:04:56;39.48;36.56;42.16;;
43787;Laerm;29409;49.306;8.500;2023-05-29T02:05:57;39.24;34.69;41.94;;
43787;Laerm;29409;49.306;8.500;2023-05-29T02:06:57;39.37;35.94;46.13;;
43787;Laerm;29409;49.306;8.500;2023-05-29T02:07:58;39.30;36.20;44.83;;
43787;Laerm;29409;49.306;8.500;2023-05-29T02:08:58;39.25;35.66;42.30;;
43787;Laerm;29409;49.306;8.500;2023-05-29T02:09:58;38.81;34.69;43.24;;
43787;Laerm;29409;49.306;8.500;2023-05-29T02:10:59;38.94;35.04;44.35;;
43787;Laerm;29409;49.306;8.500;2023-05-29T02:11:59;39.10;34.69;45.54;;
43787;Laerm;29409;49.306;8.500;2023-05-29T02:13:00;39.31;34.31;45.94;;
43787;Laerm;29409;49.306;8.500;2023-05-29T02:14:00;39.12;34.69;45.91;;
43787;Laerm;29409;49.306;8.500;2023-05-29T02:15:02;39.15;35.04;45.80;;
43787;Laerm;29409;49.306;8.500;2023-05-29T02:16:02;39.44;35.04;50.32;;
43787;Laerm;29409;49.306;8.500;2023-05-29T02:17:03;39.54;35.04;49.93;;
43787;Laerm;29409;49.306;8.500;2023-05-29T02:18:04;38.98;34.69;44.92;;
43787;Laerm;29409;49.306;8.500;2023-05-29T02:19:04;39.08;35.36;45.91;;
43787;Laerm;29409;49.306;8.500;2023-05-29T02:20:05;39.21;35.66;44.39;;
43787;Laerm;29409;49.306;8.500;2023-05-29T02:21:06;39.66;35.94;45.36;;
43787;Laerm;29409;49.306;8.500;2023-05-29T02:22:07;39.29;35.66;44.90;;
43787;Laerm;29409;49.306;8.500;2023-05-29T02:23:08;39.63;34.69;46.13;;
43787;Laerm;29409;49.306;8.500;2023-05-29T02:24:08;39.47;35.04;45.54;;
43787;Laerm;29409;49.306;8.500;2023-05-29T02:25:08;39.66;36.20;45.80;;
43787;Laerm;29409;49.306;8.500;2023-05-29T02:26:08;39.41;34.31;46.05;;
43787;Laerm;29409;49.306;8.500;2023-05-29T02:27:09;40.14;36.69;46.02;;
43787;Laerm;29409;49.306;8.500;2023-05-29T02:28:09;40.34;36.45;45.91;;
43787;Laerm;29409;49.306;8.500;2023-05-29T02:29:09;40.59;36.45;44.97;;
43787;Laerm;29409;49.306;8.500;2023-05-29T02:30:10;39.90;35.36;44.65;;
43787;Laerm;29409;49.306;8.500;2023-05-29T02:31:11;40.18;36.91;44.39;;
43787;Laerm;29409;49.306;8.500;2023-05-29T02:32:11;40.23;36.69;45.39;;
43787;Laerm;29409;49.306;8.500;2023-05-29T02:33:11;41.23;36.20;48.81;;
43787;Laerm;29409;49.306;8.500;2023-05-29T02:34:12;40.24;36.69;44.54;;
43787;Laerm;29409;49.306;8.500;2023-05-29T02:35:12;40.33;36.45;43.72;;
43787;Laerm;29409;49.306;8.500;2023-05-29T02:36:15;41.00;36.91;47.83;;
43787;Laerm;29409;49.306;8.500;2023-05-29T02:37:16;40.82;36.69;46.43;;
43787;Laerm;29409;49.306;8.500;2023-05-29T02:38:16;41.69;37.32;46.78;;
43787;Laerm;29409;49.306;8.500;2023-05-29T02:39:16;41.37;37.70;47.14;;
43787;Laerm;29409;49.306;8.500;2023-05-29T02:40:17;41.10;37.32;47.34;;
43787;Laerm;29409;49.306;8.500;2023-05-29T02:41:17;41.22;37.32;48.02;;
43787;Laerm;29409;49.306;8.500;2023-05-29T02:42:18;40.99;37.12;47.90;;
43787;Laerm;29409;49.306;8.500;2023-05-29T02:43:18;40.87;36.45;48.64;;
43787;Laerm;29409;49.306;8.500;2023-05-29T02:44:18;40.89;37.32;47.77;;
43787;Laerm;29409;49.306;8.500;2023-05-29T02:45:18;40.12;36.45;48.28;;
43787;Laerm;29409;49.306;8.500;2023-05-29T02:46:19;40.25;36.45;47.81;;
43787;Laerm;29409;49.306;8.500;2023-05-29T02:47:22;39.72;35.36;47.63;;
43787;Laerm;29409;49.306;8.500;2023-05-29T02:48:23;39.74;36.69;44.15;;
43787;Laerm;29409;49.306;8.500;2023-05-29T02:49:23;39.71;35.66;44.94;;
43787;Laerm;29409;49.306;8.500;2023-05-29T02:50:26;40.02;37.12;44.73;;
43787;Laerm;29409;49.306;8.500;2023-05-29T02:51:27;40.38;37.52;44.47;;
43787;Laerm;29409;49.306;8.500;2023-05-29T02:52:28;40.77;37.32;46.10;;
43787;Laerm;29409;49.306;8.500;2023-05-29T02:53:30;39.72;36.69;45.72;;
43787;Laerm;29409;49.306;8.500;2023-05-29T02:54:31;40.00;36.91;44.15;;
43787;Laerm;29409;49.306;8.500;2023-05-29T02:55:31;40.20;36.91;44.51;;
43787;Laerm;29409;49.306;8.500;2023-05-29T02:56:32;40.19;36.91;44.80;;
43787;Laerm;29409;49.306;8.500;2023-05-29T02:57:33;40.56;37.12;46.66;;
43787;Laerm;29409;49.306;8.500;2023-05-29T02:58:33;40.98;37.88;47.62;;
43787;Laerm;29409;49.306;8.500;2023-05-29T02:59:35;39.82;36.69;43.34;;
43787;Laerm;29409;49.306;8.500;2023-05-29T03:00:35;40.80;36.91;45.89;;
43787;Laerm;29409;49.306;8.500;2023-05-29T03:01:36;40.43;36.45;49.64;;
43787;Laerm;29409;49.306;8.500;2023-05-29T03:02:37;41.36;36.69;50.85;;
43787;Laerm;29409;49.306;8.500;2023-05-29T03:03:37;41.55;37.32;51.74;;
43787;Laerm;29409;49.306;8.500;2023-05-29T03:04:37;41.64;37.88;49.07;;
43787;Laerm;29409;49.306;8.500;2023-05-29T03:05:38;41.78;37.52;49.00;;
43787;Laerm;29409;49.306;8.500;2023-05-29T03:06:38;41.70;37.12;48.28;;
43787;Laerm;29409;49.306;8.500;2023-05-29T03:07:38;41.77;36.69;49.00;;
43787;Laerm;29409;49.306;8.500;2023-05-29T03:08:39;41.98;37.70;49.59;;
43787;Laerm;29409;49.306;8.500;2023-05-29T03:09:45;41.49;36.91;48.58;;
43787;Laerm;29409;49.306;8.500;2023-05-29T03:10:45;41.38;36.45;53.92;;
43787;Laerm;29409;49.306;8.500;2023-05-29T03:11:47;41.62;36.45;52.16;;
43787;Laerm;29409;49.306;8.500;2023-05-29T03:12:50;40.65;37.12;48.25;;
43787;Laerm;29409;49.306;8.500;2023-05-29T03:13:51;40.89;37.12;46.64;;
43787;Laerm;29409;49.306;8.500;2023-05-29T03:14:51;40.93;37.12;49.14;;
43787;Laerm;29409;49.306;8.500;2023-05-29T03:15:52;42.51;38.52;49.44;;
43787;Laerm;29409;49.306;8.500;2023-05-29T03:16:56;42.14;37.32;49.51;;
43787;Laerm;29409;49.306;8.500;2023-05-29T03:17:57;42.68;38.67;49.90;;
43787;Laerm;29409;49.306;8.500;2023-05-29T03:18:57;43.12;38.95;49.88;;
43787;Laerm;29409;49.306;8.500;2023-05-29T03:19:57;42.58;38.21;48.94;;
43787;Laerm;29409;49.306;8.500;2023-05-29T03:20:57;43.24;39.21;50.05;;
43787;Laerm;29409;49.306;8.500;2023-05-29T03:21:58;43.66;38.52;50.83;;
43787;Laerm;29409;49.306;8.500;2023-05-29T03:22:58;42.14;37.32;51.70;;
43787;Laerm;29409;49.306;8.500;2023-05-29T03:23:59;42.67;37.70;57.33;;
43787;Laerm;29409;49.306;8.500;2023-05-29T03:24:59;47.40;37.52;60.61;;
43787;Laerm;29409;49.306;8.500;2023-05-29T03:26:00;46.47;36.45;61.31;;
43787;Laerm;29409;49.306;8.500;2023-05-29T03:27:00;47.53;38.37;61.48;;
43787;Laerm;29409;49.306;8.500;2023-05-29T03:28:03;42.48;37.88;56.65;;
43787;Laerm;29409;49.306;8.500;2023-05-29T03:29:03;40.87;37.52;50.54;;
43787;Laerm;29409;49.306;8.500;2023-05-29T03:30:03;41.67;37.52;48.21;;
43787;Laerm;29409;49.306;8.500;2023-05-29T03:31:04;42.69;37.52;51.88;;
43787;Laerm;29409;49.306;8.500;2023-05-29T03:32:04;42.86;37.70;53.21;;
43787;Laerm;29409;49.306;8.500;2023-05-29T03:33:05;43.30;38.52;51.83;;
43787;Laerm;29409;49.306;8.500;2023-05-29T03:34:05;43.69;37.12;60.52;;
43787;Laerm;29409;49.306;8.500;2023-05-29T03:35:05;42.22;37.70;54.01;;
43787;Laerm;29409;49.306;8.500;2023-05-29T03:36:06;42.62;37.88;52.47;;
43787;Laerm;29409;49.306;8.500;2023-05-29T03:37:07;42.20;38.21;52.72;;
43787;Laerm;29409;49.306;8.500;2023-05-29T03:38:08;42.89;38.21;49.81;;
43787;Laerm;29409;49.306;8.500;2023-05-29T03:39:08;41.98;37.12;54.29;;
43787;Laerm;29409;49.306;8.500;2023-05-29T03:40:09;43.81;37.87;61.39;;
43787;Laerm;29409;49.306;8.500;2023-05-29T03:41:09;43.52;37.52;60.00;;
43787;Laerm;29409;49.306;8.500;2023-05-29T03:42:09;41.39;37.32;49.34;;
43787;Laerm;29409;49.306;8.500;2023-05-29T03:43:10;42.02;38.37;52.22;;
43787;Laerm;29409;49.306;8.500;2023-05-29T03:44:10;41.94;37.32;48.81;;
43787;Laerm;29409;49.306;8.500;2023-05-29T03:45:10;40.88;37.88;47.65;;
43787;Laerm;29409;49.306;8.500;2023-05-29T03:46:11;42.78;38.21;57.15;;
43787;Laerm;29409;49.306;8.500;2023-05-29T03:47:11;42.65;38.37;51.91;;
43787;Laerm;29409;49.306;8.500;2023-05-29T03:48:11;43.38;37.52;58.52;;
43787;Laerm;29409;49.306;8.500;2023-05-29T03:49:11;42.59;36.20;60.42;;
43787;Laerm;29409;49.306;8.500;2023-05-29T03:50:12;43.55;35.94;58.29;;
43787;Laerm;29409;49.306;8.500;2023-05-29T03:51:15;43.45;36.45;57.26;;
43787;Laerm;29409;49.306;8.500;2023-05-29T03:52:15;49.24;37.12;66.20;;
43787;Laerm;29409;49.306;8.500;2023-05-29T03:53:15;45.73;37.12;58.59;;
43787;Laerm;29409;49.306;8.500;2023-05-29T03:54:16;45.83;37.12;61.07;;
43787;Laerm;29409;49.306;8.500;2023-05-29T03:55:16;45.65;38.37;57.78;;
43787;Laerm;29409;49.306;8.500;2023-05-29T03:56:16;45.47;39.08;57.76;;
43787;Laerm;29409;49.306;8.500;2023-05-29T03:57:16;46.07;38.37;57.75;;
43787;Laerm;29409;49.306;8.500;2023-05-29T03:58:17;45.42;37.88;59.24;;
43787;Laerm;29409;49.306;8.500;2023-05-29T03:59:17;45.63;38.05;58.82;;
43787;Laerm;29409;49.306;8.500;2023-05-29T04:00:17;53.09;38.18;75.38;;
43787;Laerm;29409;49.306;8.500;2023-05-29T04:01:18;44.32;38.05;59.00;;
43787;Laerm;29409;49.306;8.500;2023-05-29T04:02:18;41.81;37.70;54.31;;
43787;Laerm;29409;49.306;8.500;2023-05-29T04:03:18;42.49;37.12;55.90;;
43787;Laerm;29409;49.306;8.500;2023-05-29T04:04:19;45.23;37.70;56.31;;
43787;Laerm;29409;49.306;8.500;2023-05-29T04:05:19;44.87;37.52;57.25;;
43787;Laerm;29409;49.306;8.500;2023-05-29T04:06:20;45.36;38.21;57.31;;
43787;Laerm;29409;49.306;8.500;2023-05-29T04:07:20;45.59;38.37;56.74;;
43787;Laerm;29409;49.306;8.500;2023-05-29T04:08:21;46.13;38.37;61.43;;
43787;Laerm;29409;49.306;8.500;2023-05-29T04:09:22;45.93;37.88;57.23;;
43787;Laerm;29409;49.306;8.500;2023-05-29T04:10:22;51.41;38.37;71.80;;
43787;Laerm;29409;49.306;8.500;2023-05-29T04:11:23;48.07;38.05;60.60;;
43787;Laerm;29409;49.306;8.500;2023-05-29T04:12:24;47.43;38.05;59.46;;
43787;Laerm;29409;49.306;8.500;2023-05-29T04:13:24;42.96;38.21;57.04;;
43787;Laerm;29409;49.306;8.500;2023-05-29T04:14:24;42.59;37.70;55.30;;
43787;Laerm;29409;49.306;8.500;2023-05-29T04:15:25;40.79;37.52;49.59;;
43787;Laerm;29409;49.306;8.500;2023-05-29T04:16:25;41.28;37.32;52.99;;
43787;Laerm;29409;49.306;8.500;2023-05-29T04:17:25;40.49;36.20;50.02;;
43787;Laerm;29409;49.306;8.500;2023-05-29T04:18:26;42.47;37.12;52.85;;
43787;Laerm;29409;49.306;8.500;2023-05-29T04:19:26;41.93;37.52;50.92;;
43787;Laerm;29409;49.306;8.500;2023-05-29T04:20:26;42.00;38.52;51.83;;
43787;Laerm;29409;49.306;8.500;2023-05-29T04:21:26;41.33;37.70;51.63;;
43787;Laerm;29409;49.306;8.500;2023-05-29T04:22:27;45.05;36.91;60.58;;
43787;Laerm;29409;49.306;8.500;2023-05-29T04:23:27;46.82;37.70;62.30;;
43787;Laerm;29409;49.306;8.500;2023-05-29T04:24:27;48.06;38.81;60.54;;
43787;Laerm;29409;49.306;8.500;2023-05-29T04:25:29;42.71;36.91;54.46;;
43787;Laerm;29409;49.306;8.500;2023-05-29T04:26:29;41.44;37.70;53.86;;
43787;Laerm;29409;49.306;8.500;2023-05-29T04:27:32;41.48;37.32;53.90;;
43787;Laerm;29409;49.306;8.500;2023-05-29T04:28:37;42.17;36.91;53.90;;
43787;Laerm;29409;49.306;8.500;2023-05-29T04:29:43;40.51;36.20;52.94;;
43787;Laerm;29409;49.306;8.500;2023-05-29T04:30:43;40.73;36.45;48.25;;
43787;Laerm;29409;49.306;8.500;2023-05-29T04:31:43;41.77;36.91;55.00;;
43787;Laerm;29409;49.306;8.500;2023-05-29T04:32:44;41.03;35.94;54.19;;
43787;Laerm;29409;49.306;8.500;2023-05-29T04:33:44;42.32;36.45;54.26;;
43787;Laerm;29409;49.306;8.500;2023-05-29T04:34:45;43.90;38.52;57.57;;
43787;Laerm;29409;49.306;8.500;2023-05-29T04:35:45;41.87;37.32;51.47;;
43787;Laerm;29409;49.306;8.500;2023-05-29T04:36:48;42.02;37.35;55.13;;
43787;Laerm;29409;49.306;8.500;2023-05-29T04:37:49;42.29;37.32;55.49;;
43787;Laerm;29409;49.306;8.500;2023-05-29T04:38:49;44.26;38.05;55.74;;
43787;Laerm;29409;49.306;8.500;2023-05-29T04:39:51;46.39;37.52;56.95;;
43787;Laerm;29409;49.306;8.500;2023-05-29T04:40:51;46.87;38.21;60.19;;
43787;Laerm;29409;49.306;8.500;2023-05-29T04:41:52;45.03;37.70;59.87;;
43787;Laerm;29409;49.306;8.500;2023-05-29T04:42:52;45.84;37.52;59.90;;
43787;Laerm;29409;49.306;8.500;2023-05-29T04:43:53;41.73;37.52;50.33;;
43787;Laerm;29409;49.306;8.500;2023-05-29T04:44:53;45.59;38.37;58.81;;
43787;Laerm;29409;49.306;8.500;2023-05-29T04:45:54;43.94;37.12;57.54;;
43787;Laerm;29409;49.306;8.500;2023-05-29T04:46:54;43.79;38.05;56.44;;
43787;Laerm;29409;49.306;8.500;2023-05-29T04:47:54;45.40;37.52;59.26;;
43787;Laerm;29409;49.306;8.500;2023-05-29T04:48:55;43.38;36.69;57.87;;
43787;Laerm;29409;49.306;8.500;2023-05-29T04:49:56;41.95;37.12;53.15;;
43787;Laerm;29409;49.306;8.500;2023-05-29T04:50:56;44.06;36.45;56.48;;
43787;Laerm;29409;49.306;8.500;2023-05-29T04:51:57;45.56;38.37;58.91;;
43787;Laerm;29409;49.306;8.500;2023-05-29T04:53:00;40.79;36.45;46.71;;
43787;Laerm;29409;49.306;8.500;2023-05-29T04:54:01;44.15;36.69;58.71;;
43787;Laerm;29409;49.306;8.500;2023-05-29T04:55:02;41.15;37.70;54.95;;
43787;Laerm;29409;49.306;8.500;2023-05-29T04:56:03;44.18;38.52;60.43;;
43787;Laerm;29409;49.306;8.500;2023-05-29T04:57:03;41.80;37.35;53.13;;
43787;Laerm;29409;49.306;8.500;2023-05-29T04:58:03;41.66;37.52;53.26;;
43787;Laerm;29409;49.306;8.500;2023-05-29T04:59:04;44.60;38.21;66.68;;
43787;Laerm;29409;49.306;8.500;2023-05-29T05:00:05;43.87;38.52;56.07;;
43787;Laerm;29409;49.306;8.500;2023-05-29T05:01:07;43.42;37.88;58.05;;
43787;Laerm;29409;49.306;8.500;2023-05-29T05:02:08;42.80;38.52;54.19;;
43787;Laerm;29409;49.306;8.500;2023-05-29T05:03:09;43.43;38.02;58.59;;
43787;Laerm;29409;49.306;8.500;2023-05-29T05:04:10;46.20;38.05;60.67;;
43787;Laerm;29409;49.306;8.500;2023-05-29T05:05:11;45.11;38.05;59.21;;
43787;Laerm;29409;49.306;8.500;2023-05-29T05:06:11;43.79;37.70;58.78;;
43787;Laerm;29409;49.306;8.500;2023-05-29T05:07:12;43.80;37.88;55.19;;
43787;Laerm;29409;49.306;8.500;2023-05-29T05:08:13;42.86;37.88;55.11;;
43787;Laerm;29409;49.306;8.500;2023-05-29T05:09:13;43.86;37.88;55.21;;
43787;Laerm;29409;49.306;8.500;2023-05-29T05:10:13;46.80;38.05;60.65;;
43787;Laerm;29409;49.306;8.500;2023-05-29T05:11:14;46.62;38.05;57.79;;
43787;Laerm;29409;49.306;8.500;2023-05-29T05:12:14;46.35;37.12;60.47;;
43787;Laerm;29409;49.306;8.500;2023-05-29T05:13:14;46.98;38.05;61.08;;
43787;Laerm;29409;49.306;8.500;2023-05-29T05:14:14;43.26;38.52;53.93;;
43787;Laerm;29409;49.306;8.500;2023-05-29T05:15:15;44.73;39.46;56.93;;
43787;Laerm;29409;49.306;8.500;2023-05-29T05:16:15;41.55;37.88;44.97;;
43787;Laerm;29409;49.306;8.500;2023-05-29T05:17:16;42.10;37.12;51.23;;
43787;Laerm;29409;49.306;8.500;2023-05-29T05:18:17;42.22;38.37;50.70;;
43787;Laerm;29409;49.306;8.500;2023-05-29T05:19:17;42.67;37.52;56.03;;
43787;Laerm;29409;49.306;8.500;2023-05-29T05:20:17;44.61;37.70;56.75;;
43787;Laerm;29409;49.306;8.500;2023-05-29T05:21:17;42.82;38.67;55.49;;
43787;Laerm;29409;49.306;8.500;2023-05-29T05:22:18;44.67;38.37;58.57;;
43787;Laerm;29409;49.306;8.500;2023-05-29T05:23:18;42.55;39.58;47.98;;
43787;Laerm;29409;49.306;8.500;2023-05-29T05:24:18;44.60;38.05;57.10;;
43787;Laerm;29409;49.306;8.500;2023-05-29T05:25:20;44.21;38.02;56.49;;
43787;Laerm;29409;49.306;8.500;2023-05-29T05:26:20;41.93;38.21;46.93;;
43787;Laerm;29409;49.306;8.500;2023-05-29T05:27:20;42.68;38.95;54.97;;
43787;Laerm;29409;49.306;8.500;2023-05-29T05:28:21;42.50;38.52;51.99;;
43787;Laerm;29409;49.306;8.500;2023-05-29T05:29:21;43.67;37.70;57.41;;
43787;Laerm;29409;49.306;8.500;2023-05-29T05:30:22;43.14;39.21;58.48;;
43787;Laerm;29409;49.306;8.500;2023-05-29T05:31:22;42.91;39.08;53.31;;
43787;Laerm;29409;49.306;8.500;2023-05-29T05:32:23;45.57;39.08;55.43;;
43787;Laerm;29409;49.306;8.500;2023-05-29T05:33:23;46.56;38.18;57.53;;
43787;Laerm;29409;49.306;8.500;2023-05-29T05:34:23;47.39;37.70;56.14;;
43787;Laerm;29409;49.306;8.500;2023-05-29T05:35:24;46.48;39.34;56.06;;
43787;Laerm;29409;49.306;8.500;2023-05-29T05:36:24;44.13;39.92;54.97;;
43787;Laerm;29409;49.306;8.500;2023-05-29T05:37:25;47.31;39.58;66.47;;
43787;Laerm;29409;49.306;8.500;2023-05-29T05:38:25;44.36;38.87;60.26;;
43787;Laerm;29409;49.306;8.500;2023-05-29T05:39:25;43.56;39.70;57.75;;
43787;Laerm;29409;49.306;8.500;2023-05-29T05:40:26;49.09;39.92;66.38;;
43787;Laerm;29409;49.306;8.500;2023-05-29T05:41:26;48.14;39.89;62.37;;
43787;Laerm;29409;49.306;8.500;2023-05-29T05:42:27;47.11;40.13;59.67;;
43787;Laerm;29409;49.306;8.500;2023-05-29T05:43:27;45.02;39.46;60.74;;
43787;Laerm;29409;49.306;8.500;2023-05-29T05:44:29;41.88;38.81;51.65;;
43787;Laerm;29409;49.306;8.500;2023-05-29T05:45:29;43.48;38.37;58.09;;
43787;Laerm;29409;49.306;8.500;2023-05-29T05:46:29;44.04;39.46;56.60;;
43787;Laerm;29409;49.306;8.500;2023-05-29T05:47:30;45.88;39.58;59.34;;
43787;Laerm;29409;49.306;8.500;2023-05-29T05:48:30;43.15;39.34;57.11;;
43787;Laerm;29409;49.306;8.500;2023-05-29T05:49:30;44.13;38.81;58.37;;